createdAt,value
2022-11-25T00:00:32.227Z,98350.72
2022-11-25T00:05:56.216Z,98344.94
2022-11-25T00:11:25.254Z,98333.34
2022-11-25T00:16:50.431Z,98333.59
2022-11-25T00:22:15.277Z,98324.53
2022-11-25T00:27:42.271Z,98327.44
2022-11-25T00:33:07.247Z,98333.75
2022-11-25T00:38:25.265Z,98323.34
2022-11-25T00:44:05.261Z,98326.50
2022-11-25T00:49:30.263Z,98329.56
2022-11-25T00:54:54.259Z,98335.66
2022-11-25T01:00:23.278Z,98331.53
2022-11-25T01:05:48.378Z,98338.94
2022-11-25T01:11:16.304Z,98339.56
2022-11-25T01:16:43.310Z,98334.84
2022-11-25T01:22:14.301Z,98329.88
2022-11-25T01:27:39.304Z,98335.34
2022-11-25T01:33:06.273Z,98331.13
2022-11-25T01:38:31.315Z,98339.84
2022-11-25T01:43:56.288Z,98342.03
2022-11-25T01:49:27.297Z,98348.81
2022-11-25T01:54:56.277Z,98342.53
2022-11-25T02:00:23.282Z,98350.28
2022-11-25T02:05:58.288Z,98339.47
2022-11-25T02:11:31.319Z,98338.50
2022-11-25T02:16:56.395Z,98354.88
2022-11-25T02:22:30.290Z,98344.69
2022-11-25T02:28:01.297Z,98345.88
2022-11-25T02:33:28.800Z,98341.66
2022-11-25T02:38:57.322Z,98334.72
2022-11-25T02:44:27.299Z,98338.47
2022-11-25T02:49:52.311Z,98343.94
2022-11-25T02:55:17.381Z,98345.13
2022-11-25T03:00:45.401Z,98340.91
2022-11-25T03:06:10.363Z,98336.66
2022-11-25T03:11:54.303Z,98348.38
2022-11-25T03:17:22.330Z,98343.31
2022-11-25T03:22:46.362Z,98346.94
2022-11-25T03:28:12.375Z,98345.34
2022-11-25T03:33:40.300Z,98343.88
2022-11-25T03:39:05.320Z,98348.34
2022-11-25T03:44:29.316Z,98345.69
2022-11-25T03:49:57.345Z,98347.88
2022-11-25T03:55:23.374Z,98340.94
2022-11-25T04:00:49.385Z,98356.81
2022-11-25T04:06:16.383Z,98354.03
2022-11-25T04:11:56.348Z,98355.72
2022-11-25T04:17:30.453Z,98350.41
2022-11-25T04:22:58.346Z,98358.59
2022-11-25T04:28:24.482Z,98353.28
2022-11-25T04:33:52.530Z,98353.63
2022-11-25T04:39:20.355Z,98353.16
2022-11-25T04:45:14.183Z,98351.53
2022-11-25T04:50:36.378Z,98347.66
2022-11-25T04:56:07.464Z,98341.81
2022-11-25T05:01:34.522Z,98331.66
2022-11-25T05:07:14.459Z,98338.66
2022-11-25T05:12:50.433Z,98349.53
2022-11-25T05:18:15.373Z,98348.91
2022-11-25T05:23:39.464Z,98358.19
2022-11-25T05:29:07.393Z,98360.13
2022-11-25T05:34:32.833Z,98357.66
2022-11-25T05:39:59.391Z,98368.31
2022-11-25T05:45:27.376Z,98370.25
2022-11-25T05:50:52.398Z,98373.00
2022-11-25T05:56:20.451Z,98374.72
2022-11-25T06:02:14.466Z,98372.66
2022-11-25T06:07:38.463Z,98385.13
2022-11-25T06:13:03.416Z,98378.75
2022-11-25T06:18:33.389Z,98381.91
2022-11-25T06:23:59.383Z,98385.28
2022-11-25T06:29:24.386Z,98394.34
2022-11-25T06:34:52.409Z,98390.88
2022-11-25T06:40:43.394Z,98406.81
2022-11-25T06:46:13.485Z,98413.84
2022-11-25T06:51:47.405Z,98414.91
2022-11-25T06:57:12.404Z,98416.72
2022-11-25T07:02:42.887Z,98426.19
2022-11-25T07:08:13.447Z,98430.22
2022-11-25T07:13:38.543Z,98427.44
2022-11-25T07:19:03.555Z,98414.88
2022-11-25T07:24:32.589Z,98420.59
2022-11-25T07:30:41.205Z,98414.19
2022-11-25T07:35:42.400Z,98425.00
2022-11-25T07:41:16.413Z,98426.59
2022-11-25T07:46:43.497Z,98430.88
2022-11-25T07:52:09.449Z,98432.22
2022-11-25T07:57:36.465Z,98420.66
2022-11-25T08:03:01.838Z,98422.53
2022-11-25T08:08:26.437Z,98423.66
2022-11-25T08:13:54.468Z,98417.34
2022-11-25T08:19:21.946Z,98416.66
2022-11-25T08:24:48.442Z,98421.50
2022-11-25T08:30:16.816Z,98422.50
2022-11-25T08:35:44.489Z,98417.16
2022-11-25T08:41:09.453Z,98416.34
2022-11-25T08:46:40.606Z,98418.03
2022-11-25T08:52:06.276Z,98419.97
2022-11-25T08:57:31.482Z,98411.81
2022-11-25T09:02:58.532Z,98406.22
2022-11-25T09:08:24.464Z,98409.59
2022-11-25T09:13:51.085Z,98415.50
2022-11-25T09:19:18.474Z,98413.41
2022-11-25T09:24:42.479Z,98413.56
2022-11-25T09:30:07.530Z,98402.69
2022-11-25T09:35:35.464Z,98401.25
2022-11-25T09:41:05.613Z,98385.88
2022-11-25T09:46:53.526Z,98397.34
2022-11-25T09:52:31.487Z,98391.56
2022-11-25T09:58:10.483Z,98402.88
2022-11-25T10:03:42.577Z,98398.69
2022-11-25T10:09:13.520Z,98404.34
2022-11-25T10:14:45.485Z,98398.34
2022-11-25T10:20:19.737Z,98393.13
2022-11-25T10:25:49.567Z,98391.22
2022-11-25T10:31:20.585Z,98375.47
2022-11-25T10:36:50.484Z,98378.84
2022-11-25T10:42:20.512Z,98379.72
2022-11-25T10:47:54.603Z,98360.84
2022-11-25T10:53:28.666Z,98350.69
2022-11-25T10:58:56.525Z,98353.78
2022-11-25T11:04:27.517Z,98351.94
2022-11-25T11:09:52.634Z,98350.78
2022-11-25T11:15:36.524Z,98347.13
2022-11-25T11:21:04.940Z,98337.38
2022-11-25T11:26:38.553Z,98338.75
2022-11-25T11:32:09.520Z,98341.00
2022-11-25T11:37:50.524Z,98355.53
2022-11-25T11:43:45.532Z,98351.13
2022-11-25T11:49:30.592Z,98333.84
2022-11-25T11:55:01.518Z,98330.41
2022-11-25T12:00:35.553Z,98335.06
2022-11-25T12:06:06.838Z,98332.34
2022-11-25T12:11:36.570Z,98332.28
2022-11-25T12:17:07.554Z,98336.50
2022-11-25T12:22:42.930Z,98345.72
2022-11-25T12:28:11.536Z,98347.38
2022-11-25T12:33:43.567Z,98349.22
2022-11-25T12:39:15.594Z,98345.31
2022-11-25T12:44:46.609Z,98349.69
2022-11-25T12:50:11.567Z,98352.38
2022-11-25T12:55:40.602Z,98366.16
2022-11-25T13:01:38.971Z,98368.59
2022-11-25T13:07:20.625Z,98375.81
2022-11-25T13:12:59.821Z,98369.66
2022-11-25T13:18:27.600Z,98380.38
2022-11-25T13:24:02.612Z,98382.53
2022-11-25T13:30:11.586Z,98383.25
2022-11-25T13:36:02.634Z,98402.19
2022-11-25T13:41:46.621Z,98408.13
2022-11-25T13:47:14.295Z,98404.75
2022-11-25T13:52:56.590Z,98409.84
2022-11-25T13:58:42.599Z,98410.28
2022-11-25T14:04:09.659Z,98422.16
2022-11-25T14:09:53.670Z,98420.63
2022-11-25T14:15:52.644Z,98432.75
2022-11-25T14:21:22.624Z,98441.53
2022-11-25T14:26:52.633Z,98466.63
2022-11-25T14:32:22.605Z,98482.44
2022-11-25T14:37:53.622Z,98492.72
2022-11-25T14:43:27.610Z,98498.19
2022-11-25T14:48:53.775Z,98522.66
2022-11-25T14:54:19.642Z,98533.66
2022-11-25T14:59:48.691Z,98531.13
2022-11-25T15:05:33.645Z,98528.69
2022-11-25T15:11:02.639Z,98535.44
2022-11-25T15:16:33.728Z,98551.50
2022-11-25T15:22:23.191Z,98555.00
2022-11-25T15:27:48.669Z,98567.91
2022-11-25T15:33:20.670Z,98564.81
2022-11-25T15:38:53.923Z,98576.75
2022-11-25T15:44:28.654Z,98584.94
2022-11-25T15:49:55.652Z,98582.50
2022-11-25T15:55:29.758Z,98590.69
2022-11-25T16:00:54.712Z,98593.34
2022-11-25T16:06:33.664Z,98590.78
2022-11-25T16:12:04.730Z,98594.31
2022-11-25T16:17:29.660Z,98601.38
2022-11-25T16:22:56.641Z,98606.00
2022-11-25T16:28:28.677Z,98614.75
2022-11-25T16:33:52.661Z,98622.78
2022-11-25T16:39:20.700Z,98633.38
2022-11-25T16:44:46.711Z,98644.06
2022-11-25T16:50:14.250Z,98642.22
2022-11-25T16:55:42.805Z,98642.38
2022-11-25T17:01:07.686Z,98644.22
2022-11-25T17:06:34.693Z,98639.09
2022-11-25T17:12:08.703Z,98642.28
2022-11-25T17:17:35.899Z,98641.84
2022-11-25T17:22:59.712Z,98649.53
2022-11-25T17:28:30.674Z,98667.34
2022-11-25T17:33:55.715Z,98667.25
2022-11-25T17:39:21.718Z,98669.47
2022-11-25T17:44:54.086Z,98691.09
2022-11-25T17:50:30.697Z,98701.41
2022-11-25T17:55:57.734Z,98717.47
2022-11-25T18:01:25.822Z,98711.25
2022-11-25T18:06:49.730Z,98721.09
2022-11-25T18:12:30.235Z,98733.88
2022-11-25T18:17:58.724Z,98743.47
2022-11-25T18:23:25.858Z,98758.56
2022-11-25T18:28:50.759Z,98762.94
2022-11-25T18:34:17.759Z,98767.41
2022-11-25T18:39:42.713Z,98777.13
2022-11-25T18:45:07.743Z,98781.66
2022-11-25T18:50:36.918Z,98802.31
2022-11-25T18:56:02.724Z,98804.75
2022-11-25T19:01:28.815Z,98801.09
2022-11-25T19:06:55.760Z,98811.56
2022-11-25T19:12:26.720Z,98808.53
2022-11-25T19:17:50.741Z,98813.41
2022-11-25T19:23:28.768Z,98818.22
2022-11-25T19:28:52.771Z,98822.22
2022-11-25T19:34:22.780Z,98817.84
2022-11-25T19:39:51.946Z,98831.34
2022-11-25T19:45:19.777Z,98847.88
2022-11-25T19:50:44.924Z,98853.69
2022-11-25T19:56:12.781Z,98868.25
2022-11-25T20:01:42.826Z,98881.00
2022-11-25T20:07:07.796Z,98889.78
2022-11-25T20:12:42.775Z,98890.72
2022-11-25T20:18:13.748Z,98905.06
2022-11-25T20:23:44.555Z,98911.00
2022-11-25T20:29:19.782Z,98919.38
2022-11-25T20:34:47.615Z,98928.69
2022-11-25T20:40:14.461Z,98942.84
2022-11-25T20:45:41.888Z,98939.97
2022-11-25T20:51:09.803Z,98943.88
2022-11-25T20:56:36.771Z,98953.97
2022-11-25T21:02:04.824Z,98958.50
2022-11-25T21:07:30.847Z,98974.41
2022-11-25T21:13:02.797Z,98969.31
2022-11-25T21:18:30.838Z,98980.13
2022-11-25T21:23:54.798Z,98984.53
2022-11-25T21:29:23.787Z,98986.81
2022-11-25T21:34:50.818Z,98992.03
2022-11-25T21:40:24.837Z,98995.94
2022-11-25T21:45:48.855Z,98998.31
2022-11-25T21:51:18.830Z,99010.56
2022-11-25T21:56:46.836Z,99020.97
2022-11-25T22:02:11.836Z,99027.53
2022-11-25T22:07:38.869Z,99041.22
2022-11-25T22:13:10.815Z,99050.66
2022-11-25T22:18:37.809Z,99052.81
2022-11-25T22:24:04.862Z,99065.72
2022-11-25T22:29:32.849Z,99071.81
2022-11-25T22:34:57.860Z,99072.78
2022-11-25T22:40:31.858Z,99083.66
2022-11-25T22:45:56.907Z,99077.38
2022-11-25T22:51:21.863Z,99084.63
2022-11-25T22:56:49.852Z,99097.16
2022-11-25T23:02:13.886Z,99105.16
2022-11-25T23:07:39.021Z,99106.75
2022-11-25T23:13:12.820Z,99100.56
2022-11-25T23:18:41.832Z,99114.69
2022-11-25T23:24:07.009Z,99119.06
2022-11-25T23:29:34.859Z,99125.25
2022-11-25T23:34:59.923Z,99123.31
2022-11-25T23:40:30.180Z,99117.03
2022-11-25T23:46:03.226Z,99134.75
2022-11-25T23:51:27.860Z,99133.06
2022-11-25T23:56:52.881Z,99144.50
